Time;durP1;ratioP1;P1;durP2;ratioP2;P2;SDS_P1;SDS_P2;PMS_P1;PMS_P2;Temp;Humidity;BMP_temperature;BMP_pressure;BME280_temperature;BME280_humidity;BME280_pressure;Samples;Min_cycle;Max_cycle;Signal;HPM_P1;HPM_P2
2022/03/12 00:00:00;;;;;;;69.18;29.90;;;;;;;-1.11;47.79;102334.00;5065969;28;20059;-64
2022/03/12 00:02:29;;;;;;;82.57;35.75;;;;;;;-1.14;48.18;102345.81;5055487;28;20041;-64
2022/03/12 00:04:55;;;;;;;56.78;25.08;;;;;;;-1.17;47.86;102343.94;5055396;28;20037;-63
2022/03/12 00:07:20;;;;;;;66.45;28.10;;;;;;;-1.14;48.01;102349.28;5056672;28;20431;-64
2022/03/12 00:09:46;;;;;;;52.97;23.90;;;;;;;-1.13;48.01;102339.84;5038564;28;20115;-64
2022/03/12 00:12:13;;;;;;;66.20;28.92;;;;;;;-1.13;47.86;102342.44;5056649;28;20526;-64
2022/03/12 00:14:39;;;;;;;58.70;25.98;;;;;;;-1.14;47.85;102336.38;5054898;28;20056;-63
2022/03/12 00:17:07;;;;;;;67.20;27.65;;;;;;;-1.13;47.84;102339.84;5053558;28;20488;-64
2022/03/12 00:19:33;;;;;;;61.88;26.92;;;;;;;-1.13;47.34;102337.28;5070500;28;20045;-64
2022/03/12 00:21:58;;;;;;;55.40;24.63;;;;;;;-1.10;47.52;102329.72;5086184;28;20391;-64
2022/03/12 00:24:27;;;;;;;72.57;30.98;;;;;;;-1.11;47.62;102325.38;5086934;28;20546;-64
2022/03/12 00:26:52;;;;;;;55.65;24.75;;;;;;;-1.10;47.38;102321.97;5053197;28;20033;-64
2022/03/12 00:29:20;;;;;;;43.30;19.98;;;;;;;-1.08;47.63;102325.50;5055346;28;20066;-64
2022/03/12 00:31:48;;;;;;;54.17;24.48;;;;;;;-1.05;47.32;102321.41;5056741;28;20488;-63
2022/03/12 00:34:14;;;;;;;49.45;20.50;;;;;;;-1.05;47.46;102320.53;5054589;28;20072;-64
2022/03/12 00:36:42;;;;;;;52.17;22.55;;;;;;;-1.03;47.49;102324.09;5045343;28;20039;-64
2022/03/12 00:39:09;;;;;;;55.63;26.63;;;;;;;-1.01;47.38;102310.47;5067608;28;20036;-63
2022/03/12 00:41:36;;;;;;;67.13;28.27;;;;;;;-1.02;47.27;102316.44;5038057;28;20041;-63
2022/03/12 00:44:02;;;;;;;58.72;25.55;;;;;;;-1.04;47.35;102319.72;5056326;28;20037;-63
2022/03/12 00:46:28;;;;;;;83.50;29.40;;;;;;;-1.10;47.72;102316.81;5053930;28;20120;-63
2022/03/12 00:48:54;;;;;;;76.70;29.42;;;;;;;-1.07;47.50;102314.41;5056855;28;20120;-63
2022/03/12 00:51:19;;;;;;;66.30;25.75;;;;;;;-1.13;47.53;102317.53;5054787;28;20365;-63
2022/03/12 00:53:45;;;;;;;83.10;31.45;;;;;;;-1.23;47.74;102314.34;5057093;28;20530;-63
2022/03/12 00:56:11;;;;;;;95.30;32.78;;;;;;;-1.27;47.78;102311.59;5054438;28;20123;-63
2022/03/12 00:58:37;;;;;;;77.53;27.90;;;;;;;-1.28;47.94;102317.56;5055294;28;20488;-63
2022/03/12 01:01:06;;;;;;;87.30;30.58;;;;;;;-1.30;48.07;102308.81;5053427;28;20136;-63
2022/03/12 01:03:38;;;;;;;83.18;29.45;;;;;;;-1.34;48.19;102311.16;5055755;28;20179;-64
2022/03/12 01:06:05;;;;;;;83.72;31.52;;;;;;;-1.32;48.24;102317.25;5055782;28;20468;-64
2022/03/12 01:08:33;;;;;;;84.13;30.58;;;;;;;-1.40;48.55;102306.50;5049216;28;20090;-63
2022/03/12 01:11:06;;;;;;;61.28;24.13;;;;;;;-1.38;48.36;102306.63;5070860;28;20037;-63
2022/03/12 01:13:32;;;;;;;65.63;25.05;;;;;;;-1.40;48.63;102309.09;5087214;28;20043;-63
2022/03/12 01:15:58;;;;;;;66.32;24.77;;;;;;;-1.42;48.60;102313.28;5055316;28;20124;-63
2022/03/12 01:18:24;;;;;;;69.65;26.70;;;;;;;-1.45;48.50;102312.22;5061633;28;20484;-64
2022/03/12 01:20:51;;;;;;;84.80;29.30;;;;;;;-1.49;48.66;102311.16;5073932;28;20062;-63
2022/03/12 01:23:18;;;;;;;76.43;28.73;;;;;;;-1.51;48.95;102311.06;5048836;28;20037;-63
2022/03/12 01:25:46;;;;;;;87.70;34.97;;;;;;;-1.57;48.82;102318.44;5054017;28;20044;-63
2022/03/12 01:28:12;;;;;;;64.13;25.55;;;;;;;-1.57;49.00;102321.00;5067921;28;20025;-65
2022/03/12 01:30:41;;;;;;;95.60;36.20;;;;;;;-1.58;48.94;102326.09;5038103;28;20025;-64
2022/03/12 01:33:07;;;;;;;79.57;31.15;;;;;;;-1.59;49.14;102322.63;5038097;28;20044;-64
2022/03/12 01:35:33;;;;;;;77.43;29.10;;;;;;;-1.57;48.90;102322.69;5042723;28;20043;-64
2022/03/12 01:38:03;;;;;;;110.95;38.83;;;;;;;-1.63;49.22;102319.78;5071293;28;20033;-64
2022/03/12 01:40:29;;;;;;;89.63;30.55;;;;;;;-1.65;49.22;102317.09;5053251;28;20033;-64
2022/03/12 01:42:55;;;;;;;62.38;24.55;;;;;;;-1.66;49.07;102315.31;5068209;28;20067;-64
2022/03/12 01:45:24;;;;;;;81.43;31.13;;;;;;;-1.68;49.14;102314.34;5036828;28;20036;-64
2022/03/12 01:47:52;;;;;;;64.85;26.55;;;;;;;-1.67;49.23;102316.13;5070517;28;20483;-64
2022/03/12 01:50:21;;;;;;;62.00;24.67;;;;;;;-1.69;49.32;102304.81;5056824;28;20523;-64
2022/03/12 01:52:47;;;;;;;77.13;29.40;;;;;;;-1.66;49.66;102309.28;5053727;28;20072;-64
2022/03/12 01:55:14;;;;;;;80.93;30.45;;;;;;;-1.65;49.60;102309.38;5056180;28;20044;-64
2022/03/12 01:57:40;;;;;;;57.85;24.20;;;;;;;-1.65;49.52;102313.63;5053238;28;20041;-64
2022/03/12 02:00:06;;;;;;;59.05;25.38;;;;;;;-1.69;49.61;102304.81;5055682;28;20120;-64
2022/03/12 02:02:31;;;;;;;57.30;24.17;;;;;;;-1.70;49.48;102305.63;5055686;28;20469;-64
2022/03/12 02:04:57;;;;;;;52.97;22.25;;;;;;;-1.74;49.72;102298.53;5054288;28;20120;-64
2022/03/12 02:07:22;;;;;;;48.88;23.05;;;;;;;-1.77;49.74;102294.06;5065560;28;20105;-64
2022/03/12 02:09:49;;;;;;;42.15;20.08;;;;;;;-1.83;49.93;102291.16;5071786;28;20500;-64
2022/03/12 02:12:15;;;;;;;43.55;19.88;;;;;;;-1.80;49.92;102290.41;5063231;28;20040;-64
2022/03/12 02:14:40;;;;;;;46.55;22.10;;;;;;;-1.82;49.82;102285.19;5073220;28;20039;-64
2022/03/12 02:17:10;;;;;;;45.90;19.42;;;;;;;-1.84;49.94;102281.63;5039646;28;20029;-64
2022/03/12 02:19:38;;;;;;;47.30;20.25;;;;;;;-1.79;49.83;102282.78;5075074;28;20037;-65
2022/03/12 02:22:09;;;;;;;43.10;21.45;;;;;;;-1.80;49.82;102281.00;5071730;28;20040;-64
2022/03/12 02:24:36;;;;;;;48.78;20.35;;;;;;;-1.87;49.78;102273.72;5073273;28;20553;-64
2022/03/12 02:27:04;;;;;;;41.05;18.73;;;;;;;-1.90;49.83;102265.81;5071017;28;20039;-63
2022/03/12 02:29:31;;;;;;;38.97;17.60;;;;;;;-1.89;49.87;102261.53;5071523;28;20074;-64
2022/03/12 02:32:00;;;;;;;35.75;17.50;;;;;;;-1.93;49.86;102264.75;5066984;28;20119;-64
2022/03/12 02:34:46;;;;;;;37.00;17.42;;;;;;;-1.96;50.21;102262.84;5052114;28;20048;-64
2022/03/12 02:37:15;;;;;;;34.90;15.85;;;;;;;-1.92;49.83;102264.81;5062744;28;20028;-64
2022/03/12 02:39:40;;;;;;;34.15;15.40;;;;;;;-1.90;49.60;102265.81;5070917;28;20036;-64
2022/03/12 02:42:07;;;;;;;32.08;15.75;;;;;;;-1.89;49.69;102266.69;5060271;28;20033;-64
2022/03/12 02:44:34;;;;;;;32.13;15.43;;;;;;;-1.95;49.71;102259.50;5054161;28;20068;-63
2022/03/12 02:47:13;;;;;;;37.83;17.77;;;;;;;-2.00;50.40;102263.47;5052403;28;20036;-64
2022/03/12 02:49:44;;;;;;;33.33;16.10;;;;;;;-2.04;50.34;102266.66;5053069;28;20056;-64
2022/03/12 02:52:10;;;;;;;33.30;16.50;;;;;;;-2.05;50.05;102260.63;5052153;28;20045;-64
2022/03/12 02:54:36;;;;;;;43.50;20.60;;;;;;;-2.07;50.27;102266.50;5068167;28;20035;-63
2022/03/12 02:57:02;;;;;;;42.03;19.73;;;;;;;-2.15;50.60;102267.75;5073447;28;20540;-63
2022/03/12 02:59:28;;;;;;;37.90;18.52;;;;;;;-2.21;50.75;102259.63;5070278;28;20089;-63
2022/03/12 03:01:56;;;;;;;47.22;18.90;;;;;;;-2.26;50.76;102265.41;5072184;28;20044;-63
2022/03/12 03:04:22;;;;;;;48.13;20.85;;;;;;;-2.37;51.23;102256.13;5067711;28;20123;-64
2022/03/12 03:06:48;;;;;;;49.25;20.20;;;;;;;-2.37;51.24;102266.44;5052242;28;20443;-64
2022/03/12 03:09:13;;;;;;;54.55;22.23;;;;;;;-2.49;51.67;102257.97;5052887;28;20040;-64
2022/03/12 03:11:40;;;;;;;53.78;21.08;;;;;;;-2.47;51.65;102253.81;5064171;28;20039;-64
2022/03/12 03:14:12;;;;;;;42.75;17.20;;;;;;;-2.47;51.76;102256.38;5035577;28;20384;-63
2022/03/12 03:16:38;;;;;;;56.83;23.63;;;;;;;-2.48;51.69;102250.31;5063637;28;20048;-64
2022/03/12 03:19:04;;;;;;;44.95;21.13;;;;;;;-2.53;51.86;102254.31;5072488;28;20041;-63
2022/03/12 03:21:29;;;;;;;47.60;18.98;;;;;;;-2.56;51.84;102245.50;5072676;28;20040;-63
2022/03/12 03:23:55;;;;;;;55.53;23.90;;;;;;;-2.65;52.05;102245.84;5075442;28;20051;-63
2022/03/12 03:26:44;;;;;;;53.00;22.85;;;;;;;-2.76;53.11;102254.56;5068935;28;20040;-64
2022/03/12 03:29:09;;;;;;;54.90;23.00;;;;;;;-2.85;52.85;102252.31;5058272;28;20072;-64
2022/03/12 03:31:36;;;;;;;56.45;22.05;;;;;;;-2.88;52.95;102249.56;5055345;28;20064;-64
2022/03/12 03:34:02;;;;;;;56.50;23.00;;;;;;;-2.90;52.99;102256.31;5056859;28;20056;-64
2022/03/12 03:36:28;;;;;;;48.72;22.27;;;;;;;-2.88;52.57;102257.28;5055849;28;20111;-64
2022/03/12 03:38:53;;;;;;;60.22;25.58;;;;;;;-2.97;52.57;102251.56;5061743;28;20044;-64
2022/03/12 03:41:19;;;;;;;51.60;22.17;;;;;;;-2.98;52.98;102254.94;5075618;28;20051;-64
2022/03/12 03:43:47;;;;;;;62.55;24.52;;;;;;;-3.03;52.97;102249.50;5063749;28;20178;-63
2022/03/12 03:46:16;;;;;;;57.15;24.65;;;;;;;-3.07;53.39;102255.25;5054305;28;20029;-64
2022/03/12 03:48:42;;;;;;;49.72;22.55;;;;;;;-3.06;53.17;102258.72;5055418;28;20036;-64
2022/03/12 03:51:08;;;;;;;65.80;28.10;;;;;;;-3.07;53.01;102257.81;5055749;28;20048;-64
2022/03/12 03:53:33;;;;;;;56.63;24.73;;;;;;;-3.10;53.28;102256.72;5062380;28;20048;-64
2022/03/12 03:56:00;;;;;;;59.10;24.67;;;;;;;-3.06;53.27;102258.72;5071367;28;20059;-64
2022/03/12 03:58:28;;;;;;;55.72;24.20;;;;;;;-3.02;53.16;102260.69;5056414;28;20044;-64
2022/03/12 04:00:59;;;;;;;49.85;22.27;;;;;;;-3.01;53.40;102263.34;5055416;28;20131;-64
2022/03/12 04:03:26;;;;;;;54.95;23.83;;;;;;;-2.97;53.37;102256.72;5072248;28;20032;-64
2022/03/12 04:05:52;;;;;;;58.70;24.25;;;;;;;-2.93;53.60;102263.81;5058962;28;20399;-64
2022/03/12 04:08:17;;;;;;;60.42;25.85;;;;;;;-2.97;53.89;102261.84;5061943;28;20503;-63
2022/03/12 04:10:44;;;;;;;61.00;24.05;;;;;;;-2.95;54.00;102264.50;5055034;28;20029;-64
2022/03/12 04:13:12;;;;;;;65.90;27.45;;;;;;;-2.98;54.36;102265.22;5064207;28;20075;-63
2022/03/12 04:15:39;;;;;;;65.15;26.08;;;;;;;-3.03;54.59;102264.94;5056543;28;20033;-64
2022/03/12 04:18:08;;;;;;;65.50;25.75;;;;;;;-3.08;54.94;102258.59;5061330;28;20200;-64
2022/03/12 04:20:34;;;;;;;56.42;23.73;;;;;;;-3.07;54.81;102265.53;5057358;28;20110;-65
2022/03/12 04:23:00;;;;;;;56.35;25.67;;;;;;;-3.08;54.83;102260.28;5056235;28;20116;-64
2022/03/12 04:25:31;;;;;;;51.47;21.17;;;;;;;-3.10;54.63;102256.72;5054914;28;20078;-65
2022/03/12 04:28:00;;;;;;;44.22;19.77;;;;;;;-3.09;54.49;102259.38;5072457;28;20396;-64
2022/03/12 04:30:25;;;;;;;51.33;21.35;;;;;;;-3.10;54.62;102259.31;5071710;28;20388;-64
2022/03/12 04:32:51;;;;;;;54.35;21.85;;;;;;;-3.15;54.92;102259.03;5076122;28;20464;-64
2022/03/12 04:35:17;;;;;;;54.63;22.08;;;;;;;-3.16;54.93;102261.47;5060532;28;20061;-64
2022/03/12 04:37:43;;;;;;;56.75;24.60;;;;;;;-3.19;55.15;102258.69;5069920;28;20037;-64
2022/03/12 04:40:12;;;;;;;47.78;20.75;;;;;;;-3.18;55.16;102257.94;5065513;28;20051;-64
2022/03/12 04:42:40;;;;;;;50.17;22.05;;;;;;;-3.15;55.19;102266.72;5074729;28;20033;-64
2022/03/12 04:45:07;;;;;;;43.35;18.25;;;;;;;-3.14;55.21;102265.03;5074423;28;20148;-64
2022/03/12 04:47:33;;;;;;;46.80;19.70;;;;;;;-3.12;55.09;102260.88;5068120;28;20036;-64
2022/03/12 04:49:59;;;;;;;54.92;23.00;;;;;;;-3.14;55.21;102257.34;5072905;28;20123;-64
2022/03/12 04:52:24;;;;;;;47.58;20.60;;;;;;;-3.12;55.34;102258.31;5053980;28;20107;-64
2022/03/12 04:54:49;;;;;;;52.78;21.00;;;;;;;-3.08;55.26;102256.00;5055610;28;20078;-64
2022/03/12 04:57:15;;;;;;;50.85;22.55;;;;;;;-3.09;55.23;102258.50;5054961;28;20029;-63
2022/03/12 04:59:40;;;;;;;49.17;21.42;;;;;;;-3.13;55.42;102251.38;5064372;28;20516;-63
2022/03/12 05:02:11;;;;;;;50.42;22.35;;;;;;;-3.11;55.15;102250.72;5063568;28;20037;-63
2022/03/12 05:04:37;;;;;;;58.15;23.75;;;;;;;-3.18;55.22;102252.78;5064749;28;20033;-63
2022/03/12 05:07:08;;;;;;;53.30;23.25;;;;;;;-3.29;55.52;102258.13;5055609;28;20135;-63
2022/03/12 05:09:33;;;;;;;62.70;27.42;;;;;;;-3.36;55.81;102263.66;5054715;28;20039;-64
2022/03/12 05:12:01;;;;;;;64.03;29.02;;;;;;;-3.38;55.87;102265.25;5066247;28;20033;-63
2022/03/12 05:14:26;;;;;;;55.90;23.50;;;;;;;-3.39;55.75;102258.34;5073354;28;20029;-64
2022/03/12 05:16:52;;;;;;;52.92;23.77;;;;;;;-3.41;55.50;102254.75;5070512;28;20039;-63
2022/03/12 05:19:18;;;;;;;46.53;21.05;;;;;;;-3.38;55.80;102260.09;5053928;28;20037;-63
2022/03/12 05:21:44;;;;;;;60.25;25.35;;;;;;;-3.34;55.84;102256.94;5054795;28;20037;-63
2022/03/12 05:24:10;;;;;;;57.75;24.17;;;;;;;-3.32;55.95;102255.34;5055106;28;20124;-63
2022/03/12 05:26:35;;;;;;;54.60;23.92;;;;;;;-3.31;55.90;102261.38;5061589;28;20036;-63
2022/03/12 05:29:01;;;;;;;59.80;23.92;;;;;;;-3.27;55.70;102261.69;5074892;28;20039;-63
2022/03/12 05:31:26;;;;;;;62.10;26.70;;;;;;;-3.30;56.23;102264.06;5074119;28;20476;-63
2022/03/12 05:33:52;;;;;;;57.35;25.20;;;;;;;-3.26;56.14;102267.72;5074710;28;20354;-63
2022/03/12 05:36:17;;;;;;;48.13;23.50;;;;;;;-3.24;56.39;102271.25;5071962;28;20435;-64
2022/03/12 05:38:43;;;;;;;58.78;26.00;;;;;;;-3.17;56.31;102267.41;5073222;28;20472;-64
2022/03/12 05:41:11;;;;;;;62.78;24.92;;;;;;;-3.02;56.13;102279.56;5057123;28;20036;-64
2022/03/12 05:43:46;;;;;;;52.40;23.38;;;;;;;-2.90;55.91;102284.59;5037459;28;20087;-64
2022/03/12 05:46:14;;;;;;;56.15;23.73;;;;;;;-2.81;55.61;102277.44;5051427;28;20032;-64
2022/03/12 05:48:40;;;;;;;60.17;23.85;;;;;;;-2.65;55.27;102268.13;5036789;28;20631;-64
2022/03/12 05:51:08;;;;;;;59.50;25.05;;;;;;;-2.54;55.16;102269.66;5054211;28;20057;-64
2022/03/12 05:53:35;;;;;;;62.70;27.77;;;;;;;-2.52;54.91;102261.22;5054612;28;20033;-64
2022/03/12 05:56:01;;;;;;;63.72;27.13;;;;;;;-2.41;55.04;102269.63;5054571;28;20041;-64
2022/03/12 05:58:26;;;;;;;59.65;26.42;;;;;;;-2.29;54.73;102270.34;5067498;28;20051;-63
2022/03/12 06:00:54;;;;;;;58.30;24.25;;;;;;;-2.12;54.54;102273.06;5073187;28;20028;-63
2022/03/12 06:03:21;;;;;;;76.03;30.67;;;;;;;-2.04;54.45;102264.09;5060174;28;20052;-64
2022/03/12 06:05:51;;;;;;;75.32;33.05;;;;;;;-1.95;54.23;102264.66;5053687;28;20039;-63
2022/03/12 06:08:22;;;;;;;83.72;32.70;;;;;;;-1.88;54.29;102277.09;5054558;28;20037;-63
2022/03/12 06:10:55;;;;;;;81.18;33.72;;;;;;;-1.83;54.15;102278.25;5055761;28;20442;-63
2022/03/12 06:13:25;;;;;;;65.97;29.10;;;;;;;-1.79;54.34;102289.66;5054216;28;20033;-64
2022/03/12 06:16:02;;;;;;;63.47;26.25;;;;;;;-1.65;53.90;102277.53;5086684;28;20033;-63
2022/03/12 06:18:38;;;;;;;72.90;31.38;;;;;;;-1.52;53.83;102285.19;5055199;28;20396;-63
2022/03/12 06:21:06;;;;;;;89.90;39.45;;;;;;;-1.55;54.14;102279.88;5057588;28;20049;-63
2022/03/12 06:23:31;;;;;;;77.50;34.10;;;;;;;-1.44;54.08;102271.03;5064352;28;20060;-63
2022/03/12 06:25:57;;;;;;;78.22;35.58;;;;;;;-1.22;53.17;102267.09;5066796;28;20142;-64
2022/03/12 06:28:23;;;;;;;77.80;33.53;;;;;;;-1.03;52.93;102268.22;5053880;28;20086;-63
2022/03/12 06:30:50;;;;;;;71.28;30.33;;;;;;;-0.85;52.35;102270.03;5060829;28;20438;-64
2022/03/12 06:33:19;;;;;;;69.82;30.77;;;;;;;-0.72;52.03;102262.13;5067456;28;20052;-64
2022/03/12 06:35:46;;;;;;;56.30;26.55;;;;;;;-0.56;51.69;102266.44;5053144;28;20411;-63
2022/03/12 06:38:12;;;;;;;52.65;24.45;;;;;;;-0.38;50.82;102259.66;5055069;28;20086;-64
2022/03/12 06:40:38;;;;;;;69.28;30.70;;;;;;;-0.24;50.31;102255.22;5070700;28;20036;-62
2022/03/12 06:43:09;;;;;;;52.38;23.83;;;;;;;-0.12;49.91;102253.28;5070299;28;20470;-63
2022/03/12 06:45:35;;;;;;;53.25;23.23;;;;;;;0.02;49.58;102242.75;5068847;28;20052;-63
2022/03/12 06:48:01;;;;;;;38.63;18.88;;;;;;;0.17;49.00;102236.66;5054853;28;20059;-67
2022/03/12 06:50:27;;;;;;;43.40;20.63;;;;;;;0.29;48.61;102249.31;5069458;28;20059;-63
2022/03/12 06:52:54;;;;;;;44.95;21.02;;;;;;;0.42;48.31;102237.88;5072195;28;20072;-63
2022/03/12 06:55:23;;;;;;;39.78;19.38;;;;;;;0.58;47.86;102244.69;5066908;28;20127;-64
2022/03/12 06:57:53;;;;;;;35.97;17.98;;;;;;;0.73;47.43;102230.78;5071582;28;20033;-63
2022/03/12 07:00:24;;;;;;;33.33;17.58;;;;;;;0.89;47.08;102241.88;5072681;28;20036;-64
2022/03/12 07:02:50;;;;;;;34.80;15.93;;;;;;;1.05;46.66;102246.06;5087165;28;20116;-64
2022/03/12 07:05:16;;;;;;;36.25;16.63;;;;;;;1.14;46.12;102234.44;5060568;28;20029;-64
2022/03/12 07:07:42;;;;;;;37.13;16.17;;;;;;;1.28;45.73;102237.66;5070789;28;20032;-63
2022/03/12 07:10:09;;;;;;;34.13;15.52;;;;;;;1.34;45.52;102250.88;5073496;28;20021;-64
2022/03/12 07:12:39;;;;;;;30.10;14.43;;;;;;;1.48;45.19;102235.97;5071634;28;20494;-64
2022/03/12 07:15:05;;;;;;;28.60;14.43;;;;;;;1.62;45.02;102237.47;5073441;28;20029;-64
2022/03/12 07:17:32;;;;;;;29.17;15.48;;;;;;;1.73;44.79;102227.59;5072094;28;20127;-63
2022/03/12 07:20:00;;;;;;;32.00;16.52;;;;;;;1.82;44.35;102238.34;5072032;28;20044;-64
2022/03/12 07:22:26;;;;;;;32.72;17.23;;;;;;;1.94;44.63;102232.81;5071936;28;20040;-67
2022/03/12 07:24:52;;;;;;;30.17;15.80;;;;;;;2.07;44.30;102232.50;5063585;28;20056;-65
2022/03/12 07:27:18;;;;;;;58.80;22.25;;;;;;;2.22;43.97;102237.44;5051334;28;20063;-63
2022/03/12 07:29:44;;;;;;;44.92;20.60;;;;;;;2.33;43.48;102235.31;5053175;28;20040;-64
2022/03/12 07:32:11;;;;;;;44.67;20.88;;;;;;;2.46;43.27;102237.59;5062694;28;20037;-64
2022/03/12 07:34:36;;;;;;;38.40;17.88;;;;;;;2.57;42.54;102238.91;5064362;28;20052;-64
2022/03/12 07:37:02;;;;;;;39.25;17.58;;;;;;;2.70;42.31;102245.47;5061488;28;20412;-63
2022/03/12 07:39:28;;;;;;;38.45;18.17;;;;;;;2.82;42.16;102234.69;5038735;28;20056;-63
2022/03/12 07:41:53;;;;;;;33.05;16.00;;;;;;;2.91;42.09;102233.38;5071111;28;20040;-63
2022/03/12 07:44:19;;;;;;;26.90;13.85;;;;;;;3.03;41.46;102235.50;5069252;28;20078;-63
2022/03/12 07:46:45;;;;;;;30.77;17.20;;;;;;;3.14;41.19;102223.84;5037530;28;20044;-63
2022/03/12 07:49:11;;;;;;;30.02;16.35;;;;;;;3.26;40.20;102222.53;5059875;28;20036;-63
2022/03/12 07:51:37;;;;;;;30.98;15.40;;;;;;;3.37;39.74;102224.69;5048686;28;20472;-63
2022/03/12 07:54:04;;;;;;;26.50;13.50;;;;;;;3.51;39.68;102217.44;5064337;28;20033;-63
2022/03/12 07:56:30;;;;;;;25.85;14.38;;;;;;;3.62;39.27;102218.69;5071692;28;20037;-63
2022/03/12 07:58:55;;;;;;;29.98;15.65;;;;;;;3.72;38.75;102217.31;5070587;28;20111;-63
2022/03/12 08:01:22;;;;;;;29.60;14.25;;;;;;;3.72;38.50;102216.44;5055606;28;20051;-63
2022/03/12 08:03:48;;;;;;;21.45;11.60;;;;;;;3.85;38.20;102213.41;5069929;28;20021;-64
2022/03/12 08:06:16;;;;;;;25.17;12.90;;;;;;;3.96;37.98;102217.28;5068335;28;20033;-64
2022/03/12 08:08:42;;;;;;;23.25;13.20;;;;;;;3.96;37.66;102204.28;5052979;28;20024;-63
2022/03/12 08:11:28;;;;;;;21.00;11.02;;;;;;;4.06;37.73;102203.75;5070841;28;20115;-62
2022/03/12 08:14:00;;;;;;;17.73;9.82;;;;;;;4.17;37.40;102207.59;5056541;28;20125;-62
2022/03/12 08:16:26;;;;;;;19.35;9.15;;;;;;;4.30;37.17;102213.22;5056271;28;20032;-63
2022/03/12 08:18:51;;;;;;;16.48;8.73;;;;;;;4.39;37.09;102210.94;5074082;28;20060;-62
2022/03/12 08:21:19;;;;;;;18.45;9.95;;;;;;;4.48;36.67;102198.19;5076496;28;20032;-62
2022/03/12 08:23:46;;;;;;;23.52;13.48;;;;;;;4.58;36.57;102195.03;5075377;28;20078;-64
2022/03/12 08:26:11;;;;;;;21.35;11.02;;;;;;;4.65;36.38;102203.94;5074955;28;20040;-61
2022/03/12 08:28:37;;;;;;;18.40;9.45;;;;;;;4.70;36.05;102200.63;5060714;28;20029;-61
2022/03/12 08:31:04;;;;;;;16.77;9.38;;;;;;;4.81;35.64;102187.06;5055959;28;20482;-66
2022/03/12 08:33:30;;;;;;;17.23;8.23;;;;;;;4.90;35.49;102193.44;5057426;28;20033;-61
2022/03/12 08:35:58;;;;;;;14.70;8.32;;;;;;;5.03;35.34;102192.09;5069034;28;20036;-62
2022/03/12 08:38:25;;;;;;;19.42;8.73;;;;;;;5.14;35.53;102195.88;5057003;28;20037;-62
2022/03/12 08:40:51;;;;;;;19.75;10.65;;;;;;;5.22;35.17;102190.03;5067414;28;20041;-62
2022/03/12 08:43:17;;;;;;;18.75;9.93;;;;;;;5.31;35.12;102198.13;5065679;28;20060;-65
2022/03/12 08:45:43;;;;;;;23.42;13.05;;;;;;;5.38;34.95;102192.22;5072473;28;20045;-63
2022/03/12 08:48:09;;;;;;;18.83;10.18;;;;;;;5.44;34.82;102181.97;5073750;28;20039;-63
2022/03/12 08:50:34;;;;;;;21.85;10.70;;;;;;;5.48;34.82;102181.22;5070310;28;20040;-62
2022/03/12 08:53:00;;;;;;;20.23;10.32;;;;;;;5.44;34.51;102181.97;5070795;28;20055;-63
2022/03/12 08:55:25;;;;;;;20.40;11.30;;;;;;;5.50;34.49;102181.25;5086287;28;20032;-63
2022/03/12 08:57:52;;;;;;;28.92;18.55;;;;;;;5.52;34.04;102184.81;5076013;28;20514;-63
2022/03/12 09:00:19;;;;;;;25.98;17.38;;;;;;;5.62;34.34;102182.47;5072862;28;20039;-63
2022/03/12 09:02:47;;;;;;;20.83;11.90;;;;;;;5.64;34.04;102193.84;5072215;28;20037;-64
2022/03/12 09:05:14;;;;;;;23.73;13.23;;;;;;;5.71;33.72;102187.09;5056039;28;20060;-63
2022/03/12 09:07:41;;;;;;;20.13;9.88;;;;;;;5.76;33.45;102182.88;5068164;28;20123;-64
2022/03/12 09:10:06;;;;;;;15.65;8.90;;;;;;;5.87;33.73;102177.94;5073005;28;20103;-63
2022/03/12 09:12:32;;;;;;;26.02;13.60;;;;;;;5.93;33.30;102184.22;5072746;28;20071;-63
2022/03/12 09:14:57;;;;;;;19.13;10.70;;;;;;;6.03;33.33;102181.88;5074019;28;20094;-62
2022/03/12 09:17:23;;;;;;;14.85;8.85;;;;;;;6.13;33.28;102186.44;5074196;28;20396;-63
2022/03/12 09:19:48;;;;;;;17.00;9.90;;;;;;;6.22;32.80;102181.44;5074910;28;20047;-62
2022/03/12 09:22:14;;;;;;;14.57;8.75;;;;;;;6.31;32.58;102175.59;5074350;28;20052;-62
2022/03/12 09:24:40;;;;;;;17.98;9.25;;;;;;;6.38;32.40;102175.78;5075072;28;20396;-62
2022/03/12 09:27:06;;;;;;;14.90;7.88;;;;;;;6.44;32.20;102177.66;5073369;28;20060;-63
2022/03/12 09:29:35;;;;;;;15.18;7.72;;;;;;;6.52;32.00;102175.22;5073228;28;20024;-62
2022/03/12 09:32:04;;;;;;;18.88;9.40;;;;;;;6.51;31.96;102170.84;5073497;28;20074;-62
2022/03/12 09:34:29;;;;;;;14.20;7.72;;;;;;;6.60;32.30;102174.56;5073304;28;20135;-62
2022/03/12 09:36:54;;;;;;;13.90;7.47;;;;;;;6.66;32.14;102166.88;5074516;28;20124;-62
2022/03/12 09:39:20;;;;;;;14.95;7.40;;;;;;;6.73;32.24;102177.44;5074569;28;20044;-62
2022/03/12 09:41:46;;;;;;;17.10;8.27;;;;;;;6.79;31.97;102169.75;5074477;28;20154;-62
2022/03/12 09:44:11;;;;;;;17.88;8.65;;;;;;;6.83;32.04;102172.47;5073360;28;20127;-62
2022/03/12 09:46:38;;;;;;;15.10;8.27;;;;;;;6.93;31.87;102172.66;5074401;28;20047;-62
2022/03/12 09:49:04;;;;;;;12.65;7.05;;;;;;;7.00;32.00;102177.19;5074514;28;20036;-62
2022/03/12 09:51:31;;;;;;;14.68;7.32;;;;;;;7.04;31.74;102171.16;5073141;28;20052;-62
2022/03/12 09:54:00;;;;;;;17.50;9.15;;;;;;;7.10;31.57;102160.81;5072989;28;20048;-62
2022/03/12 09:56:25;;;;;;;13.68;7.68;;;;;;;7.15;31.19;102157.47;5056284;28;20043;-62
2022/03/12 09:58:51;;;;;;;13.55;6.88;;;;;;;7.23;30.97;102152.41;5074456;28;20119;-62
2022/03/12 10:01:17;;;;;;;12.10;6.93;;;;;;;7.31;30.79;102157.78;5074375;28;20046;-62
2022/03/12 10:03:43;;;;;;;11.63;6.65;;;;;;;7.38;30.70;102151.81;5073085;28;20060;-62
2022/03/12 10:06:10;;;;;;;11.35;5.60;;;;;;;7.42;30.25;102153.66;5072773;28;20037;-62
2022/03/12 10:08:36;;;;;;;10.65;5.50;;;;;;;7.47;30.05;102148.50;5054547;28;20046;-62
2022/03/12 10:11:04;;;;;;;11.02;6.13;;;;;;;7.53;29.91;102151.22;5070906;28;20127;-62
2022/03/12 10:13:30;;;;;;;14.38;6.80;;;;;;;7.59;29.62;102147.00;5072331;28;20094;-63
2022/03/12 10:15:55;;;;;;;12.43;6.60;;;;;;;7.66;29.46;102142.78;5072067;28;20460;-63
2022/03/12 10:18:22;;;;;;;10.35;5.57;;;;;;;7.68;28.99;102146.28;5070830;28;20086;-62
2022/03/12 10:20:48;;;;;;;12.02;4.97;;;;;;;7.73;29.05;102142.00;5070857;28;20040;-62
2022/03/12 10:23:14;;;;;;;11.77;5.57;;;;;;;7.78;28.66;102142.09;5073519;28;20390;-62
2022/03/12 10:25:39;;;;;;;12.48;6.55;;;;;;;7.87;28.75;102140.53;5073637;28;20037;-62
2022/03/12 10:28:05;;;;;;;11.27;5.72;;;;;;;7.92;28.06;102151.06;5073808;28;20040;-62
2022/03/12 10:30:31;;;;;;;12.50;6.55;;;;;;;7.99;28.54;102147.72;5072426;28;20025;-62
2022/03/12 10:32:56;;;;;;;11.93;6.07;;;;;;;8.06;28.58;102153.94;5072777;28;20024;-62
2022/03/12 10:35:23;;;;;;;13.18;6.97;;;;;;;8.12;28.93;102147.06;5073458;28;20538;-63
2022/03/12 10:37:51;;;;;;;15.73;7.13;;;;;;;8.20;28.32;102143.69;5072400;28;20039;-62
2022/03/12 10:40:20;;;;;;;12.88;7.03;;;;;;;8.25;28.51;102140.28;5072242;28;20543;-62
2022/03/12 10:42:53;;;;;;;10.85;6.05;;;;;;;8.24;27.30;102133.28;5072291;28;20369;-62
2022/03/12 10:45:23;;;;;;;10.27;5.68;;;;;;;8.32;27.80;102141.25;5055781;28;20384;-62
2022/03/12 10:47:53;;;;;;;14.48;7.13;;;;;;;8.38;28.33;102128.31;5073473;28;20035;-62
2022/03/12 10:50:29;;;;;;;12.23;5.78;;;;;;;8.42;27.78;102130.13;5073500;28;20113;-62
2022/03/12 10:52:57;;;;;;;10.75;5.30;;;;;;;8.50;28.21;102131.09;5071954;28;20098;-62
2022/03/12 10:55:27;;;;;;;8.45;5.07;;;;;;;8.55;27.61;102132.03;5072558;28;20037;-62
2022/03/12 10:58:16;;;;;;;11.60;5.32;;;;;;;8.64;27.46;102126.06;5072039;28;20361;-62
2022/03/12 11:00:46;;;;;;;11.98;6.32;;;;;;;8.73;27.91;102118.31;5073304;28;20021;-62
2022/03/12 11:03:15;;;;;;;11.18;5.32;;;;;;;8.78;27.59;102126.25;5072017;28;20033;-62
2022/03/12 11:05:43;;;;;;;9.90;5.45;;;;;;;8.83;27.35;102125.44;5072223;28;20029;-62
2022/03/12 11:08:21;;;;;;;12.27;6.05;;;;;;;8.84;26.16;102128.94;5072224;28;20032;-62
2022/03/12 11:10:52;;;;;;;10.77;5.28;;;;;;;8.83;26.84;102114.09;5072083;28;20393;-62
2022/03/12 11:13:43;;;;;;;12.45;6.63;;;;;;;8.92;26.32;102110.69;5073291;28;20031;-62